createdAt,value
2019-03-06T00:01:03.591Z,35.00
2019-03-06T00:03:36.349Z,34.90
2019-03-06T00:06:16.406Z,35.00
2019-03-06T00:08:43.337Z,35.00
2019-03-06T00:11:16.204Z,34.80
2019-03-06T00:13:48.953Z,34.60
2019-03-06T00:16:22.864Z,34.60
2019-03-06T00:18:55.982Z,34.60
2019-03-06T00:21:28.989Z,34.50
2019-03-06T00:24:01.968Z,34.40
2019-03-06T00:26:35.274Z,34.30
2019-03-06T00:29:08.364Z,34.50
2019-03-06T00:31:41.680Z,34.60
2019-03-06T00:34:14.652Z,34.70
2019-03-06T00:36:47.530Z,34.70
2019-03-06T00:39:20.612Z,34.80
2019-03-06T00:41:53.392Z,34.80
2019-03-06T00:44:26.462Z,34.70
2019-03-06T00:46:59.264Z,34.60
2019-03-06T00:49:32.264Z,34.40
2019-03-06T00:52:05.140Z,34.30
2019-03-06T00:54:38.136Z,34.20
2019-03-06T00:57:10.904Z,34.00
2019-03-06T00:59:43.831Z,33.70
2019-03-06T01:02:17.621Z,33.40
2019-03-06T01:04:50.378Z,33.60
2019-03-06T01:07:23.264Z,33.80
2019-03-06T01:09:56.052Z,34.00
2019-03-06T01:12:28.872Z,33.90
2019-03-06T01:15:02.132Z,34.00
2019-03-06T01:17:35.838Z,34.20
2019-03-06T01:20:11.502Z,34.30
2019-03-06T01:22:45.354Z,34.40
2019-03-06T01:25:22.585Z,34.40
2019-03-06T01:27:56.169Z,34.50
2019-03-06T01:30:30.205Z,34.60
2019-03-06T01:33:16.715Z,34.60
2019-03-06T01:35:54.446Z,34.70
2019-03-06T01:38:44.738Z,34.70
2019-03-06T01:41:24.582Z,34.90
2019-03-06T01:44:05.233Z,35.10
2019-03-06T01:46:38.623Z,35.20
2019-03-06T01:49:11.519Z,35.30
2019-03-06T01:51:44.143Z,35.30
2019-03-06T01:54:17.920Z,35.30
2019-03-06T01:56:50.619Z,35.40
2019-03-06T01:59:23.543Z,35.40
2019-03-06T02:01:56.807Z,35.50
2019-03-06T02:04:29.591Z,35.70
2019-03-06T02:07:02.869Z,36.10
2019-03-06T02:09:35.571Z,36.40
2019-03-06T02:12:09.240Z,36.70
2019-03-06T02:14:41.944Z,37.00
2019-03-06T02:17:14.959Z,37.30
2019-03-06T02:19:47.776Z,37.40
2019-03-06T02:22:21.528Z,37.40
2019-03-06T02:24:55.285Z,37.40
2019-03-06T02:27:28.945Z,37.70
2019-03-06T02:30:01.919Z,37.90
2019-03-06T02:32:35.971Z,38.00
2019-03-06T02:35:09.522Z,37.90
2019-03-06T02:37:42.556Z,37.70
2019-03-06T02:40:16.344Z,37.70
2019-03-06T02:42:49.767Z,37.90
2019-03-06T02:45:23.393Z,38.10
2019-03-06T02:47:56.300Z,38.10
2019-03-06T02:50:29.589Z,38.20
2019-03-06T02:53:03.576Z,38.30
2019-03-06T02:55:36.901Z,38.20
2019-03-06T02:58:14.565Z,37.80
2019-03-06T03:01:01.033Z,37.30
2019-03-06T03:03:40.905Z,37.10
2019-03-06T03:06:20.535Z,36.60
2019-03-06T03:08:53.351Z,35.80
2019-03-06T03:11:26.157Z,34.90
2019-03-06T03:14:00.414Z,33.80
2019-03-06T03:16:33.640Z,32.80
2019-03-06T03:19:07.215Z,32.00
2019-03-06T03:21:39.949Z,31.30
2019-03-06T03:24:14.931Z,30.80
2019-03-06T03:26:48.073Z,30.30
2019-03-06T03:29:21.263Z,30.00
2019-03-06T03:31:54.685Z,29.70
2019-03-06T03:34:27.696Z,29.40
2019-03-06T03:37:00.813Z,29.10
2019-03-06T03:39:33.821Z,28.80
2019-03-06T03:42:06.810Z,28.60
2019-03-06T03:44:39.596Z,28.50
2019-03-06T03:47:14.670Z,28.30
2019-03-06T03:49:47.407Z,28.10
2019-03-06T03:52:20.470Z,27.90
2019-03-06T03:54:53.293Z,27.70
2019-03-06T03:57:26.637Z,27.60
2019-03-06T03:59:59.552Z,27.40
2019-03-06T04:02:32.708Z,27.30
2019-03-06T04:05:05.424Z,27.20
2019-03-06T04:07:38.422Z,27.20
2019-03-06T04:10:12.926Z,27.10
2019-03-06T04:12:45.826Z,27.00
2019-03-06T04:15:20.070Z,26.80
2019-03-06T04:17:53.034Z,26.70
2019-03-06T04:20:26.023Z,26.60
2019-03-06T04:22:58.783Z,26.50
2019-03-06T04:25:32.360Z,26.40
2019-03-06T04:28:05.195Z,26.30
2019-03-06T04:30:38.642Z,26.30
2019-03-06T04:33:11.902Z,26.20
2019-03-06T04:35:44.718Z,26.20
2019-03-06T04:38:17.514Z,26.10
2019-03-06T04:40:50.540Z,26.00
2019-03-06T04:43:23.398Z,25.90
2019-03-06T04:45:56.425Z,25.80
2019-03-06T04:48:29.329Z,25.80
2019-03-06T04:51:01.953Z,25.80
2019-03-06T04:53:34.793Z,25.70
2019-03-06T04:56:07.862Z,25.70
2019-03-06T04:58:40.658Z,25.60
2019-03-06T05:01:14.095Z,25.50
2019-03-06T05:03:48.049Z,25.50
2019-03-06T05:06:20.792Z,25.40
2019-03-06T05:08:53.636Z,25.30
2019-03-06T05:11:26.154Z,25.30
2019-03-06T05:13:59.345Z,25.20
2019-03-06T05:16:33.422Z,25.20
2019-03-06T05:19:07.363Z,25.20
2019-03-06T05:21:40.160Z,25.10
2019-03-06T05:24:14.309Z,25.10
2019-03-06T05:26:47.208Z,25.10
2019-03-06T05:29:20.136Z,25.10
2019-03-06T05:32:27.029Z,25.00
2019-03-06T05:35:01.520Z,25.00
2019-03-06T05:37:42.899Z,24.90
2019-03-06T05:40:16.621Z,24.90
2019-03-06T05:42:49.292Z,24.80
2019-03-06T05:45:21.922Z,24.80
2019-03-06T05:47:55.246Z,24.70
2019-03-06T05:50:28.078Z,24.60
2019-03-06T05:53:02.254Z,24.50
2019-03-06T05:55:35.252Z,24.50
2019-03-06T05:58:09.349Z,24.40
2019-03-06T06:00:42.292Z,24.40
2019-03-06T06:03:15.702Z,24.30
2019-03-06T06:05:48.434Z,24.30
2019-03-06T06:08:21.620Z,24.20
2019-03-06T06:10:54.399Z,24.20
2019-03-06T06:13:27.185Z,24.20
2019-03-06T06:16:00.180Z,24.10
2019-03-06T06:18:33.187Z,24.00
2019-03-06T06:21:22.787Z,24.00
2019-03-06T06:24:02.846Z,23.90
2019-03-06T06:26:35.791Z,23.80
2019-03-06T06:29:09.592Z,23.70
2019-03-06T06:31:42.459Z,23.60
2019-03-06T06:34:15.419Z,23.60
2019-03-06T06:36:49.367Z,23.60
2019-03-06T06:39:22.202Z,23.50
2019-03-06T06:41:54.867Z,23.40
2019-03-06T06:44:29.663Z,23.40
2019-03-06T06:47:02.319Z,23.40
2019-03-06T06:49:35.082Z,23.30
2019-03-06T06:52:35.345Z,23.20
2019-03-06T06:55:22.606Z,23.20
2019-03-06T06:58:19.798Z,23.10
2019-03-06T07:01:05.146Z,23.00
2019-03-06T07:04:15.499Z,22.90
2019-03-06T07:06:49.848Z,22.90
2019-03-06T07:09:41.863Z,22.90
2019-03-06T07:12:23.445Z,22.80
2019-03-06T07:15:09.572Z,22.70
2019-03-06T07:17:44.960Z,22.70
2019-03-06T07:20:35.214Z,22.60
2019-03-06T07:23:15.532Z,22.60
2019-03-06T07:25:49.576Z,22.50
2019-03-06T07:28:33.318Z,22.50
2019-03-06T07:31:22.220Z,22.50
2019-03-06T07:34:05.711Z,22.50
2019-03-06T07:36:56.155Z,22.40
2019-03-06T07:39:32.121Z,22.40
2019-03-06T07:42:06.462Z,22.30
2019-03-06T07:44:40.895Z,22.30
2019-03-06T07:47:21.221Z,22.20
2019-03-06T07:50:01.287Z,22.20
2019-03-06T07:52:44.407Z,22.20
2019-03-06T07:55:33.983Z,22.20
2019-03-06T07:58:40.666Z,22.10
2019-03-06T08:01:17.066Z,22.10
2019-03-06T08:03:47.464Z,22.10
2019-03-06T08:06:20.314Z,22.10
2019-03-06T08:08:53.245Z,22.00
2019-03-06T08:11:33.363Z,22.00
2019-03-06T08:14:07.495Z,22.00
2019-03-06T08:16:59.834Z,21.90
2019-03-06T08:19:38.031Z,21.90
2019-03-06T08:22:30.029Z,21.80
2019-03-06T08:25:04.201Z,21.80
2019-03-06T08:27:38.006Z,21.70
2019-03-06T08:30:14.438Z,21.70
2019-03-06T08:32:47.198Z,21.70
2019-03-06T08:35:20.446Z,21.60
2019-03-06T08:37:53.556Z,21.60
2019-03-06T08:40:26.468Z,21.50
2019-03-06T08:42:59.229Z,21.40
2019-03-06T08:45:33.555Z,21.40
2019-03-06T08:48:23.086Z,21.30
2019-03-06T08:51:03.315Z,21.30
2019-03-06T08:53:53.399Z,21.20
2019-03-06T08:56:34.681Z,21.20
2019-03-06T08:59:15.147Z,21.10
2019-03-06T09:01:49.297Z,21.10
2019-03-06T09:04:30.416Z,21.10
2019-03-06T09:07:13.655Z,21.00
2019-03-06T09:09:51.850Z,20.90
2019-03-06T09:12:44.980Z,20.90
2019-03-06T09:15:28.669Z,20.90
2019-03-06T09:18:08.849Z,20.90
2019-03-06T09:20:53.912Z,20.90
2019-03-06T09:23:34.247Z,20.90
2019-03-06T09:26:11.391Z,20.90
2019-03-06T09:29:01.026Z,20.90
2019-03-06T09:31:30.944Z,21.00
2019-03-06T09:34:21.129Z,21.00
2019-03-06T09:37:11.941Z,21.00
2019-03-06T09:39:46.068Z,21.00
2019-03-06T09:42:23.952Z,21.00
2019-03-06T09:45:07.589Z,21.00
2019-03-06T09:47:41.736Z,21.00
2019-03-06T09:50:25.341Z,21.00
2019-03-06T09:52:59.332Z,21.00
2019-03-06T09:55:36.672Z,21.00
2019-03-06T09:58:10.968Z,20.90
2019-03-06T10:01:01.972Z,20.90
2019-03-06T10:03:39.014Z,20.80
2019-03-06T10:06:29.886Z,20.80
2019-03-06T10:09:20.665Z,20.80
2019-03-06T10:12:12.677Z,20.80
2019-03-06T10:14:56.013Z,20.70
2019-03-06T10:17:33.598Z,20.70
2019-03-06T10:20:11.152Z,20.70
2019-03-06T10:22:43.913Z,20.70
2019-03-06T10:25:17.157Z,20.70
2019-03-06T10:27:50.297Z,20.70
2019-03-06T10:30:23.657Z,20.80
2019-03-06T10:32:56.792Z,20.70
2019-03-06T10:35:29.645Z,20.70
2019-03-06T10:38:03.234Z,20.70
2019-03-06T10:40:36.402Z,20.70
2019-03-06T10:43:09.868Z,20.70
2019-03-06T10:45:42.777Z,20.70
2019-03-06T10:48:15.611Z,20.60
2019-03-06T10:50:48.622Z,20.60
2019-03-06T10:53:21.834Z,20.60
2019-03-06T10:55:54.840Z,20.60
2019-03-06T10:58:27.761Z,20.60
2019-03-06T11:01:00.773Z,20.60
2019-03-06T11:03:44.448Z,20.60
2019-03-06T11:06:17.386Z,20.60
2019-03-06T11:08:50.687Z,20.60
2019-03-06T11:11:23.994Z,20.60
2019-03-06T11:14:05.793Z,20.60
2019-03-06T11:16:32.589Z,20.60
2019-03-06T11:19:05.734Z,20.60
2019-03-06T11:21:39.155Z,20.60
2019-03-06T11:24:11.932Z,20.60
2019-03-06T11:26:45.345Z,20.60
2019-03-06T11:29:19.381Z,20.60
2019-03-06T11:31:52.136Z,20.60
2019-03-06T11:34:24.854Z,20.60
2019-03-06T11:36:58.174Z,20.50
2019-03-06T11:39:31.154Z,20.50
2019-03-06T11:42:04.320Z,20.50
2019-03-06T11:44:37.121Z,20.50
2019-03-06T11:47:09.865Z,20.50
2019-03-06T11:49:42.974Z,20.50
2019-03-06T11:52:15.937Z,20.50
2019-03-06T11:54:48.770Z,20.50
2019-03-06T11:57:22.094Z,20.50
2019-03-06T11:59:54.984Z,20.40
2019-03-06T12:02:27.947Z,20.40
2019-03-06T12:05:00.999Z,20.40
2019-03-06T12:07:33.888Z,20.40
2019-03-06T12:10:06.970Z,20.40
2019-03-06T12:12:41.085Z,20.40
2019-03-06T12:15:14.940Z,20.40
2019-03-06T12:17:47.998Z,20.40
2019-03-06T12:20:21.184Z,20.40
2019-03-06T12:22:54.064Z,20.40
2019-03-06T12:25:26.945Z,20.40
2019-03-06T12:27:59.901Z,20.30
2019-03-06T12:30:33.278Z,20.30
2019-03-06T12:33:05.887Z,20.30
2019-03-06T12:35:38.788Z,20.30
2019-03-06T12:38:11.676Z,20.30
2019-03-06T12:40:45.038Z,20.30
2019-03-06T12:43:19.092Z,20.30
2019-03-06T12:46:23.747Z,20.30
2019-03-06T12:49:00.656Z,20.20
2019-03-06T12:51:33.792Z,20.20
2019-03-06T12:54:06.757Z,20.20
2019-03-06T12:56:40.772Z,20.20
2019-03-06T12:59:13.812Z,20.20
2019-03-06T13:01:46.831Z,20.20
2019-03-06T13:04:20.752Z,20.20
2019-03-06T13:06:53.831Z,20.20
2019-03-06T13:09:26.937Z,20.20
2019-03-06T13:12:00.175Z,20.20
2019-03-06T13:14:32.907Z,20.20
2019-03-06T13:17:06.168Z,20.30
2019-03-06T13:19:39.293Z,20.30
2019-03-06T13:22:11.954Z,20.30
2019-03-06T13:24:45.420Z,20.30
2019-03-06T13:27:18.360Z,20.30
2019-03-06T13:29:51.496Z,20.40
2019-03-06T13:32:25.702Z,20.40
2019-03-06T13:35:00.260Z,20.40
2019-03-06T13:37:33.270Z,20.40
2019-03-06T13:40:07.242Z,20.40
2019-03-06T13:42:40.267Z,20.30
2019-03-06T13:45:14.551Z,20.30
2019-03-06T13:47:47.184Z,20.30
2019-03-06T13:50:21.481Z,20.20
2019-03-06T13:52:54.888Z,20.20
2019-03-06T13:55:28.068Z,20.30
2019-03-06T13:58:00.935Z,20.20
2019-03-06T14:00:35.365Z,20.20
2019-03-06T14:03:08.893Z,20.20
2019-03-06T14:05:41.834Z,20.20
2019-03-06T14:08:14.845Z,20.20
2019-03-06T14:10:47.755Z,20.10
2019-03-06T14:13:21.988Z,20.10
2019-03-06T14:15:54.875Z,20.10
2019-03-06T14:18:27.911Z,20.10
2019-03-06T14:21:00.804Z,20.10
2019-03-06T14:23:35.368Z,20.10
2019-03-06T14:26:09.304Z,20.10
2019-03-06T14:28:42.094Z,20.00
2019-03-06T14:31:15.256Z,20.00
2019-03-06T14:33:48.308Z,20.00
2019-03-06T14:36:21.528Z,20.00
2019-03-06T14:38:54.689Z,20.00
2019-03-06T14:41:27.825Z,20.00
2019-03-06T14:44:00.933Z,20.00
2019-03-06T14:46:34.141Z,20.00
2019-03-06T14:49:07.454Z,20.00
2019-03-06T14:51:40.180Z,20.00
2019-03-06T14:54:13.567Z,20.00
2019-03-06T14:56:46.730Z,20.00
2019-03-06T14:59:20.488Z,20.00
2019-03-06T15:01:53.292Z,20.00
2019-03-06T15:04:26.967Z,19.90
2019-03-06T15:07:00.087Z,19.90
2019-03-06T15:09:33.098Z,19.90
2019-03-06T15:12:06.056Z,19.90
2019-03-06T15:14:39.060Z,19.90
2019-03-06T15:17:12.138Z,19.90
2019-03-06T15:19:45.278Z,19.90
2019-03-06T15:22:17.997Z,19.90
2019-03-06T15:24:51.002Z,19.80
2019-03-06T15:27:24.182Z,19.80
2019-03-06T15:29:57.511Z,19.80
2019-03-06T15:32:30.383Z,19.80
2019-03-06T15:35:03.550Z,19.80
2019-03-06T15:37:36.737Z,19.80
2019-03-06T15:40:12.015Z,19.80
2019-03-06T15:42:45.293Z,19.70
2019-03-06T15:45:21.479Z,19.80
2019-03-06T15:47:53.513Z,19.80
2019-03-06T15:50:26.438Z,19.80
2019-03-06T15:52:59.281Z,19.80
2019-03-06T15:55:32.767Z,19.80
2019-03-06T15:58:05.806Z,19.80
2019-03-06T16:00:46.241Z,19.80
2019-03-06T16:03:15.062Z,19.80
2019-03-06T16:05:48.250Z,19.80
2019-03-06T16:08:20.987Z,19.80
2019-03-06T16:10:53.888Z,19.90
2019-03-06T16:13:26.959Z,19.80
2019-03-06T16:16:00.051Z,19.80
2019-03-06T16:18:33.014Z,19.70
2019-03-06T16:21:06.932Z,19.70
2019-03-06T16:23:39.996Z,19.60
2019-03-06T16:26:13.639Z,19.60
2019-03-06T16:28:46.716Z,19.50
2019-03-06T16:31:22.569Z,19.50
2019-03-06T16:33:55.988Z,19.40
2019-03-06T16:36:29.161Z,19.40
2019-03-06T16:39:02.280Z,19.40
2019-03-06T16:41:35.798Z,19.40
2019-03-06T16:44:11.313Z,19.30
2019-03-06T16:46:44.283Z,19.30
2019-03-06T16:49:17.279Z,19.30
2019-03-06T16:51:50.209Z,19.30
2019-03-06T16:54:24.376Z,19.30
2019-03-06T16:56:57.613Z,19.30
2019-03-06T16:59:30.829Z,19.30
2019-03-06T17:02:03.875Z,19.30
2019-03-06T17:04:37.405Z,19.30
2019-03-06T17:07:09.997Z,19.20
2019-03-06T17:09:43.157Z,19.20
2019-03-06T17:12:18.652Z,19.20
2019-03-06T17:14:51.137Z,19.10
2019-03-06T17:17:24.237Z,19.10
2019-03-06T17:19:57.416Z,19.10
2019-03-06T17:22:30.317Z,19.00
2019-03-06T17:25:03.082Z,18.90
2019-03-06T17:27:36.058Z,18.90
2019-03-06T17:30:13.350Z,18.90
2019-03-06T17:32:56.866Z,18.80
2019-03-06T17:35:29.973Z,18.80
2019-03-06T17:38:03.008Z,18.70
2019-03-06T17:40:35.768Z,18.70
2019-03-06T17:43:09.032Z,18.60
2019-03-06T17:45:42.732Z,18.60
2019-03-06T17:48:15.789Z,18.60
2019-03-06T17:50:48.364Z,18.50
2019-03-06T17:53:21.289Z,18.50
2019-03-06T17:55:54.195Z,18.50
2019-03-06T17:58:27.314Z,18.40
2019-03-06T18:01:01.135Z,18.40
2019-03-06T18:03:41.576Z,18.40
2019-03-06T18:06:14.150Z,18.30
2019-03-06T18:08:46.903Z,18.30
2019-03-06T18:11:20.159Z,18.30
2019-03-06T18:13:52.962Z,18.30
2019-03-06T18:16:25.867Z,18.30
2019-03-06T18:19:00.351Z,18.40
2019-03-06T18:21:32.599Z,18.40
2019-03-06T18:24:05.311Z,18.40
2019-03-06T18:26:38.403Z,18.50
2019-03-06T18:29:11.401Z,18.50
2019-03-06T18:31:44.449Z,18.50
2019-03-06T18:34:17.430Z,18.50
2019-03-06T18:36:50.653Z,18.60
2019-03-06T18:39:23.545Z,18.60
2019-03-06T18:41:56.725Z,18.70
2019-03-06T18:44:29.418Z,18.70
2019-03-06T18:47:02.478Z,18.80
2019-03-06T18:49:35.708Z,18.80
2019-03-06T18:52:08.653Z,18.90
2019-03-06T18:54:41.764Z,18.90
2019-03-06T18:57:15.154Z,19.00
2019-03-06T18:59:47.946Z,19.00
2019-03-06T19:02:20.741Z,19.00
2019-03-06T19:04:53.845Z,19.10
2019-03-06T19:07:27.844Z,19.20
2019-03-06T19:10:00.906Z,19.30
2019-03-06T19:12:33.707Z,19.40
2019-03-06T19:15:06.456Z,19.50
2019-03-06T19:17:40.215Z,19.60
2019-03-06T19:20:13.182Z,19.70
2019-03-06T19:22:46.204Z,19.80
2019-03-06T19:25:19.889Z,19.90
2019-03-06T19:27:53.201Z,20.00
2019-03-06T19:30:27.306Z,20.10
2019-03-06T19:33:00.234Z,20.10
2019-03-06T19:35:33.269Z,20.20
2019-03-06T19:38:06.226Z,20.30
2019-03-06T19:40:38.885Z,20.30
2019-03-06T19:43:12.309Z,20.40
2019-03-06T19:45:45.243Z,20.50
2019-03-06T19:48:18.572Z,20.60
2019-03-06T19:50:51.644Z,20.70
2019-03-06T19:53:24.936Z,21.00
2019-03-06T19:55:57.749Z,21.30
2019-03-06T19:58:30.701Z,21.60
2019-03-06T20:01:03.326Z,21.80
2019-03-06T20:03:36.097Z,22.10
2019-03-06T20:06:09.123Z,22.20
2019-03-06T20:08:42.080Z,22.40
2019-03-06T20:11:15.099Z,22.80
2019-03-06T20:13:47.933Z,23.00
2019-03-06T20:16:20.952Z,23.30
2019-03-06T20:18:54.054Z,23.60
2019-03-06T20:21:26.885Z,23.70
2019-03-06T20:24:03.207Z,23.90
2019-03-06T20:26:37.886Z,24.10
2019-03-06T20:29:10.091Z,24.20
2019-03-06T20:31:42.848Z,24.30
2019-03-06T20:34:18.931Z,24.30
2019-03-06T20:36:51.559Z,24.40
2019-03-06T20:39:27.064Z,24.70
2019-03-06T20:42:00.009Z,24.80
2019-03-06T20:44:33.097Z,25.20
2019-03-06T20:47:05.877Z,25.30
2019-03-06T20:49:40.233Z,25.80
2019-03-06T20:52:13.089Z,26.30
2019-03-06T20:54:46.327Z,26.70
2019-03-06T20:57:19.068Z,27.20
2019-03-06T20:59:52.288Z,27.60
2019-03-06T21:02:25.036Z,28.00
2019-03-06T21:05:00.001Z,28.40
2019-03-06T21:07:34.587Z,28.70
2019-03-06T21:10:08.118Z,29.10
2019-03-06T21:12:41.126Z,29.40
2019-03-06T21:15:15.666Z,29.80
2019-03-06T21:17:48.831Z,30.10
2019-03-06T21:20:22.342Z,30.20
2019-03-06T21:22:55.430Z,30.50
2019-03-06T21:25:28.260Z,30.70
2019-03-06T21:28:01.140Z,30.90
2019-03-06T21:30:41.748Z,31.10
2019-03-06T21:33:14.802Z,30.50
2019-03-06T21:35:47.474Z,29.90
2019-03-06T21:38:20.674Z,29.10
2019-03-06T21:40:53.561Z,28.30
2019-03-06T21:43:26.583Z,27.90
2019-03-06T21:46:01.303Z,27.60
2019-03-06T21:48:33.512Z,27.20
2019-03-06T21:51:07.034Z,26.80
2019-03-06T21:53:40.145Z,27.20
2019-03-06T21:56:13.527Z,28.50
2019-03-06T21:58:46.408Z,28.30
2019-03-06T22:01:20.369Z,28.40
2019-03-06T22:03:52.883Z,28.20
2019-03-06T22:06:25.931Z,28.80
2019-03-06T22:08:58.669Z,29.00
2019-03-06T22:11:31.446Z,29.90
2019-03-06T22:14:05.128Z,30.30
2019-03-06T22:16:37.694Z,29.60
2019-03-06T22:19:10.675Z,29.70
2019-03-06T22:21:43.465Z,30.00
2019-03-06T22:24:16.553Z,30.10
2019-03-06T22:26:49.275Z,29.40
2019-03-06T22:29:21.990Z,28.70
2019-03-06T22:31:54.840Z,28.20
2019-03-06T22:34:27.756Z,28.30
2019-03-06T22:37:00.624Z,28.60
2019-03-06T22:39:33.524Z,29.40
2019-03-06T22:42:06.820Z,28.90
2019-03-06T22:44:40.021Z,28.50
2019-03-06T22:47:13.399Z,29.60
2019-03-06T22:49:46.397Z,30.50
2019-03-06T22:52:19.359Z,30.00
2019-03-06T22:54:52.250Z,29.40
2019-03-06T22:57:25.113Z,29.60
2019-03-06T22:59:57.968Z,30.80
2019-03-06T23:02:31.621Z,30.80
2019-03-06T23:05:05.261Z,31.00
2019-03-06T23:07:38.416Z,30.70
2019-03-06T23:10:11.224Z,30.90
2019-03-06T23:12:45.166Z,31.90
2019-03-06T23:15:17.806Z,32.50
2019-03-06T23:17:51.065Z,32.80
2019-03-06T23:20:24.072Z,32.40
2019-03-06T23:22:56.952Z,31.70
2019-03-06T23:25:29.870Z,31.30
2019-03-06T23:28:02.955Z,30.60
2019-03-06T23:30:35.801Z,30.00
2019-03-06T23:33:08.736Z,29.60
2019-03-06T23:35:41.746Z,29.30
2019-03-06T23:38:14.481Z,29.10
2019-03-06T23:40:47.448Z,29.70
2019-03-06T23:43:20.210Z,30.50
2019-03-06T23:45:53.221Z,31.10
2019-03-06T23:48:26.101Z,31.30
2019-03-06T23:50:59.581Z,31.90
2019-03-06T23:53:33.763Z,31.50
2019-03-06T23:56:06.677Z,31.30
2019-03-06T23:58:39.604Z,30.80
